sensor_id;sensor_type;location;lat;lon;timestamp;P1;durP1;ratioP1;P2;durP2;ratioP2
7737;SDS011;29398;45.328;5.558;2023-07-20T00:00:50;3.35;;;2.30;;
7737;SDS011;29398;45.328;5.558;2023-07-20T00:01:53;3.05;;;2.17;;
7737;SDS011;29398;45.328;5.558;2023-07-20T00:03:09;4.90;;;2.17;;
7737;SDS011;29398;45.328;5.558;2023-07-20T00:04:10;2.65;;;2.20;;
7737;SDS011;29398;45.328;5.558;2023-07-20T00:05:13;4.22;;;2.25;;
7737;SDS011;29398;45.328;5.558;2023-07-20T00:06:15;2.33;;;1.98;;
7737;SDS011;29398;45.328;5.558;2023-07-20T00:07:17;3.17;;;2.20;;
7737;SDS011;29398;45.328;5.558;2023-07-20T00:08:18;2.20;;;2.00;;
7737;SDS011;29398;45.328;5.558;2023-07-20T00:09:20;2.58;;;2.10;;
7737;SDS011;29398;45.328;5.558;2023-07-20T00:10:21;2.50;;;1.92;;
7737;SDS011;29398;45.328;5.558;2023-07-20T00:11:25;3.75;;;2.10;;
7737;SDS011;29398;45.328;5.558;2023-07-20T00:12:27;2.88;;;2.53;;
7737;SDS011;29398;45.328;5.558;2023-07-20T00:13:29;5.60;;;2.30;;
7737;SDS011;29398;45.328;5.558;2023-07-20T00:14:30;3.38;;;2.15;;
7737;SDS011;29398;45.328;5.558;2023-07-20T00:15:33;3.15;;;2.05;;
7737;SDS011;29398;45.328;5.558;2023-07-20T00:16:34;3.65;;;2.28;;
7737;SDS011;29398;45.328;5.558;2023-07-20T00:17:36;6.00;;;2.40;;
7737;SDS011;29398;45.328;5.558;2023-07-20T00:18:37;3.13;;;2.03;;
7737;SDS011;29398;45.328;5.558;2023-07-20T00:19:39;2.95;;;2.08;;
7737;SDS011;29398;45.328;5.558;2023-07-20T00:20:40;3.15;;;2.05;;
7737;SDS011;29398;45.328;5.558;2023-07-20T00:21:42;3.33;;;2.35;;
7737;SDS011;29398;45.328;5.558;2023-07-20T00:22:44;4.05;;;2.20;;
7737;SDS011;29398;45.328;5.558;2023-07-20T00:23:45;5.60;;;2.45;;
7737;SDS011;29398;45.328;5.558;2023-07-20T00:24:47;2.47;;;2.28;;
7737;SDS011;29398;45.328;5.558;2023-07-20T00:25:49;2.47;;;2.28;;
7737;SDS011;29398;45.328;5.558;2023-07-20T00:26:51;3.45;;;2.40;;
7737;SDS011;29398;45.328;5.558;2023-07-20T00:27:52;4.88;;;2.75;;
7737;SDS011;29398;45.328;5.558;2023-07-20T00:28:54;7.70;;;2.92;;
7737;SDS011;29398;45.328;5.558;2023-07-20T00:29:55;3.25;;;2.28;;
7737;SDS011;29398;45.328;5.558;2023-07-20T00:30:58;3.90;;;2.75;;
7737;SDS011;29398;45.328;5.558;2023-07-20T00:32:00;3.30;;;2.30;;
7737;SDS011;29398;45.328;5.558;2023-07-20T00:33:03;3.55;;;2.45;;
7737;SDS011;29398;45.328;5.558;2023-07-20T00:34:04;4.75;;;2.47;;
7737;SDS011;29398;45.328;5.558;2023-07-20T00:35:07;4.03;;;2.60;;
7737;SDS011;29398;45.328;5.558;2023-07-20T00:36:08;2.75;;;2.42;;
7737;SDS011;29398;45.328;5.558;2023-07-20T00:37:11;3.53;;;2.50;;
7737;SDS011;29398;45.328;5.558;2023-07-20T00:38:12;4.18;;;2.47;;
7737;SDS011;29398;45.328;5.558;2023-07-20T00:39:15;2.60;;;2.20;;
7737;SDS011;29398;45.328;5.558;2023-07-20T00:40:16;2.75;;;2.53;;
7737;SDS011;29398;45.328;5.558;2023-07-20T00:41:19;3.88;;;2.42;;
7737;SDS011;29398;45.328;5.558;2023-07-20T00:42:20;2.72;;;2.35;;
7737;SDS011;29398;45.328;5.558;2023-07-20T00:43:22;2.85;;;2.33;;
7737;SDS011;29398;45.328;5.558;2023-07-20T00:44:24;2.97;;;2.45;;
7737;SDS011;29398;45.328;5.558;2023-07-20T00:45:27;3.55;;;2.60;;
7737;SDS011;29398;45.328;5.558;2023-07-20T00:46:28;3.90;;;2.30;;
7737;SDS011;29398;45.328;5.558;2023-07-20T00:47:30;4.07;;;2.60;;
7737;SDS011;29398;45.328;5.558;2023-07-20T00:48:33;2.55;;;2.33;;
7737;SDS011;29398;45.328;5.558;2023-07-20T00:49:34;6.95;;;2.67;;
7737;SDS011;29398;45.328;5.558;2023-07-20T00:50:38;4.00;;;2.80;;
7737;SDS011;29398;45.328;5.558;2023-07-20T00:51:40;5.80;;;2.55;;
7737;SDS011;29398;45.328;5.558;2023-07-20T00:52:44;3.55;;;2.25;;
7737;SDS011;29398;45.328;5.558;2023-07-20T00:53:45;5.30;;;2.70;;
7737;SDS011;29398;45.328;5.558;2023-07-20T00:54:49;4.60;;;2.70;;
7737;SDS011;29398;45.328;5.558;2023-07-20T00:55:50;3.60;;;2.80;;
7737;SDS011;29398;45.328;5.558;2023-07-20T00:56:52;3.95;;;2.83;;
7737;SDS011;29398;45.328;5.558;2023-07-20T00:57:54;3.72;;;2.30;;
7737;SDS011;29398;45.328;5.558;2023-07-20T00:58:56;2.55;;;2.17;;
7737;SDS011;29398;45.328;5.558;2023-07-20T00:59:58;3.40;;;2.47;;
7737;SDS011;29398;45.328;5.558;2023-07-20T01:01:00;4.05;;;2.70;;
7737;SDS011;29398;45.328;5.558;2023-07-20T01:02:01;4.03;;;2.80;;
7737;SDS011;29398;45.328;5.558;2023-07-20T01:03:03;2.72;;;2.38;;
7737;SDS011;29398;45.328;5.558;2023-07-20T01:04:04;3.78;;;2.45;;
7737;SDS011;29398;45.328;5.558;2023-07-20T01:05:06;3.55;;;2.30;;
7737;SDS011;29398;45.328;5.558;2023-07-20T01:06:10;3.20;;;2.50;;
7737;SDS011;29398;45.328;5.558;2023-07-20T01:07:23;4.63;;;2.55;;
7737;SDS011;29398;45.328;5.558;2023-07-20T01:08:31;2.80;;;2.10;;
7737;SDS011;29398;45.328;5.558;2023-07-20T01:09:39;4.00;;;2.80;;
7737;SDS011;29398;45.328;5.558;2023-07-20T01:10:46;3.47;;;2.47;;
7737;SDS011;29398;45.328;5.558;2023-07-20T01:11:57;3.45;;;2.30;;
7737;SDS011;29398;45.328;5.558;2023-07-20T01:13:03;3.10;;;2.30;;
7737;SDS011;29398;45.328;5.558;2023-07-20T01:14:07;2.50;;;2.30;;
7737;SDS011;29398;45.328;5.558;2023-07-20T01:15:09;5.03;;;2.20;;
7737;SDS011;29398;45.328;5.558;2023-07-20T01:16:12;2.83;;;2.08;;
7737;SDS011;29398;45.328;5.558;2023-07-20T01:17:13;4.47;;;2.75;;
7737;SDS011;29398;45.328;5.558;2023-07-20T01:18:15;4.13;;;2.50;;
7737;SDS011;29398;45.328;5.558;2023-07-20T01:19:16;2.83;;;2.28;;
7737;SDS011;29398;45.328;5.558;2023-07-20T01:20:19;3.10;;;2.17;;
7737;SDS011;29398;45.328;5.558;2023-07-20T01:21:24;3.08;;;2.20;;
7737;SDS011;29398;45.328;5.558;2023-07-20T01:22:38;2.30;;;2.03;;
7737;SDS011;29398;45.328;5.558;2023-07-20T01:24:02;2.97;;;2.58;;
7737;SDS011;29398;45.328;5.558;2023-07-20T01:25:21;4.22;;;2.47;;
7737;SDS011;29398;45.328;5.558;2023-07-20T01:26:37;2.90;;;2.30;;
7737;SDS011;29398;45.328;5.558;2023-07-20T01:28:02;2.55;;;2.10;;
7737;SDS011;29398;45.328;5.558;2023-07-20T01:29:28;3.40;;;2.35;;
7737;SDS011;29398;45.328;5.558;2023-07-20T01:30:56;2.30;;;1.98;;
7737;SDS011;29398;45.328;5.558;2023-07-20T01:32:05;3.75;;;2.47;;
7737;SDS011;29398;45.328;5.558;2023-07-20T01:33:10;2.40;;;1.98;;
7737;SDS011;29398;45.328;5.558;2023-07-20T01:34:14;3.22;;;2.00;;
7737;SDS011;29398;45.328;5.558;2023-07-20T01:35:18;1.95;;;1.80;;
7737;SDS011;29398;45.328;5.558;2023-07-20T01:36:21;2.67;;;2.00;;
7737;SDS011;29398;45.328;5.558;2023-07-20T01:37:25;3.60;;;2.15;;
7737;SDS011;29398;45.328;5.558;2023-07-20T01:38:29;4.30;;;2.65;;
7737;SDS011;29398;45.328;5.558;2023-07-20T01:39:32;4.90;;;2.25;;
7737;SDS011;29398;45.328;5.558;2023-07-20T01:40:33;3.85;;;1.80;;
7737;SDS011;29398;45.328;5.558;2023-07-20T01:41:36;7.35;;;2.17;;
7737;SDS011;29398;45.328;5.558;2023-07-20T01:42:37;3.50;;;1.95;;
7737;SDS011;29398;45.328;5.558;2023-07-20T01:43:39;3.10;;;1.95;;
7737;SDS011;29398;45.328;5.558;2023-07-20T01:44:41;2.97;;;2.08;;
7737;SDS011;29398;45.328;5.558;2023-07-20T01:45:43;2.22;;;1.60;;
7737;SDS011;29398;45.328;5.558;2023-07-20T01:46:45;2.53;;;1.98;;
7737;SDS011;29398;45.328;5.558;2023-07-20T01:47:49;2.88;;;2.15;;
7737;SDS011;29398;45.328;5.558;2023-07-20T01:48:50;2.63;;;1.80;;
7737;SDS011;29398;45.328;5.558;2023-07-20T01:49:51;2.85;;;1.98;;
7737;SDS011;29398;45.328;5.558;2023-07-20T01:50:53;2.92;;;1.80;;
7737;SDS011;29398;45.328;5.558;2023-07-20T01:51:55;3.10;;;2.00;;
7737;SDS011;29398;45.328;5.558;2023-07-20T01:52:57;3.90;;;1.95;;
7737;SDS011;29398;45.328;5.558;2023-07-20T01:53:59;3.47;;;1.90;;
7737;SDS011;29398;45.328;5.558;2023-07-20T01:55:01;2.10;;;1.77;;
7737;SDS011;29398;45.328;5.558;2023-07-20T01:56:05;3.17;;;2.08;;
7737;SDS011;29398;45.328;5.558;2023-07-20T01:57:07;2.88;;;1.77;;
7737;SDS011;29398;45.328;5.558;2023-07-20T01:58:08;3.22;;;2.20;;
7737;SDS011;29398;45.328;5.558;2023-07-20T01:59:09;4.00;;;1.90;;
7737;SDS011;29398;45.328;5.558;2023-07-20T02:00:12;4.30;;;2.00;;
7737;SDS011;29398;45.328;5.558;2023-07-20T02:01:16;2.47;;;1.70;;
7737;SDS011;29398;45.328;5.558;2023-07-20T02:02:18;5.03;;;2.33;;
7737;SDS011;29398;45.328;5.558;2023-07-20T02:03:22;3.83;;;2.20;;
7737;SDS011;29398;45.328;5.558;2023-07-20T02:04:27;2.65;;;2.08;;
7737;SDS011;29398;45.328;5.558;2023-07-20T02:05:28;4.32;;;1.95;;
7737;SDS011;29398;45.328;5.558;2023-07-20T02:06:29;3.65;;;2.38;;
7737;SDS011;29398;45.328;5.558;2023-07-20T02:07:30;3.60;;;2.30;;
7737;SDS011;29398;45.328;5.558;2023-07-20T02:08:31;7.10;;;2.70;;
7737;SDS011;29398;45.328;5.558;2023-07-20T02:09:33;3.50;;;2.40;;
7737;SDS011;29398;45.328;5.558;2023-07-20T02:10:34;6.07;;;2.20;;
7737;SDS011;29398;45.328;5.558;2023-07-20T02:11:37;3.80;;;2.60;;
7737;SDS011;29398;45.328;5.558;2023-07-20T02:12:38;4.85;;;2.42;;
7737;SDS011;29398;45.328;5.558;2023-07-20T02:13:39;3.35;;;2.28;;
7737;SDS011;29398;45.328;5.558;2023-07-20T02:14:41;4.13;;;2.42;;
7737;SDS011;29398;45.328;5.558;2023-07-20T02:15:42;2.92;;;2.00;;
7737;SDS011;29398;45.328;5.558;2023-07-20T02:16:45;5.07;;;2.20;;
7737;SDS011;29398;45.328;5.558;2023-07-20T02:17:47;4.68;;;2.20;;
7737;SDS011;29398;45.328;5.558;2023-07-20T02:18:50;4.38;;;2.05;;
7737;SDS011;29398;45.328;5.558;2023-07-20T02:19:52;3.17;;;2.17;;
7737;SDS011;29398;45.328;5.558;2023-07-20T02:20:55;3.88;;;2.38;;
7737;SDS011;29398;45.328;5.558;2023-07-20T02:21:56;2.63;;;1.90;;
7737;SDS011;29398;45.328;5.558;2023-07-20T02:22:58;3.28;;;1.90;;
7737;SDS011;29398;45.328;5.558;2023-07-20T02:23:59;2.90;;;2.10;;
7737;SDS011;29398;45.328;5.558;2023-07-20T02:25:00;3.00;;;2.17;;
7737;SDS011;29398;45.328;5.558;2023-07-20T02:26:02;3.08;;;2.08;;
7737;SDS011;29398;45.328;5.558;2023-07-20T02:27:04;4.00;;;2.10;;
7737;SDS011;29398;45.328;5.558;2023-07-20T02:28:07;3.88;;;2.42;;
7737;SDS011;29398;45.328;5.558;2023-07-20T02:29:08;2.75;;;2.10;;
7737;SDS011;29398;45.328;5.558;2023-07-20T02:30:11;4.82;;;2.10;;
7737;SDS011;29398;45.328;5.558;2023-07-20T02:31:12;6.32;;;2.35;;
7737;SDS011;29398;45.328;5.558;2023-07-20T02:32:14;3.80;;;2.45;;
7737;SDS011;29398;45.328;5.558;2023-07-20T02:33:15;3.47;;;2.20;;
7737;SDS011;29398;45.328;5.558;2023-07-20T02:34:19;3.38;;;2.30;;
7737;SDS011;29398;45.328;5.558;2023-07-20T02:35:20;5.15;;;2.35;;
7737;SDS011;29398;45.328;5.558;2023-07-20T02:36:22;4.25;;;2.53;;
7737;SDS011;29398;45.328;5.558;2023-07-20T02:37:23;3.40;;;2.10;;
7737;SDS011;29398;45.328;5.558;2023-07-20T02:38:25;2.17;;;1.98;;
7737;SDS011;29398;45.328;5.558;2023-07-20T02:39:26;2.50;;;2.20;;
7737;SDS011;29398;45.328;5.558;2023-07-20T02:40:28;3.38;;;1.90;;
7737;SDS011;29398;45.328;5.558;2023-07-20T02:41:29;2.38;;;2.00;;
7737;SDS011;29398;45.328;5.558;2023-07-20T02:42:32;2.90;;;2.00;;
7737;SDS011;29398;45.328;5.558;2023-07-20T02:43:33;4.05;;;2.38;;
7737;SDS011;29398;45.328;5.558;2023-07-20T02:44:35;4.15;;;2.45;;
7737;SDS011;29398;45.328;5.558;2023-07-20T02:45:39;4.22;;;1.98;;
7737;SDS011;29398;45.328;5.558;2023-07-20T02:46:42;2.75;;;2.10;;
7737;SDS011;29398;45.328;5.558;2023-07-20T02:47:43;4.07;;;1.70;;
7737;SDS011;29398;45.328;5.558;2023-07-20T02:48:45;2.28;;;1.95;;
7737;SDS011;29398;45.328;5.558;2023-07-20T02:49:48;2.63;;;1.92;;
7737;SDS011;29398;45.328;5.558;2023-07-20T02:50:50;3.15;;;2.05;;
7737;SDS011;29398;45.328;5.558;2023-07-20T02:51:51;3.08;;;2.22;;
7737;SDS011;29398;45.328;5.558;2023-07-20T02:52:54;3.53;;;2.20;;
7737;SDS011;29398;45.328;5.558;2023-07-20T02:53:55;2.65;;;1.88;;
7737;SDS011;29398;45.328;5.558;2023-07-20T02:54:57;2.95;;;2.30;;
7737;SDS011;29398;45.328;5.558;2023-07-20T02:55:58;3.00;;;1.90;;
7737;SDS011;29398;45.328;5.558;2023-07-20T02:57:00;3.63;;;2.40;;
7737;SDS011;29398;45.328;5.558;2023-07-20T02:58:02;3.10;;;2.40;;
7737;SDS011;29398;45.328;5.558;2023-07-20T02:59:04;2.28;;;2.08;;
7737;SDS011;29398;45.328;5.558;2023-07-20T03:00:05;3.70;;;1.95;;
7737;SDS011;29398;45.328;5.558;2023-07-20T03:01:08;3.13;;;2.13;;
7737;SDS011;29398;45.328;5.558;2023-07-20T03:02:10;2.33;;;1.92;;
7737;SDS011;29398;45.328;5.558;2023-07-20T03:03:12;2.38;;;1.83;;
7737;SDS011;29398;45.328;5.558;2023-07-20T03:04:13;2.60;;;2.03;;
7737;SDS011;29398;45.328;5.558;2023-07-20T03:05:17;3.17;;;1.98;;
7737;SDS011;29398;45.328;5.558;2023-07-20T03:06:18;2.45;;;2.10;;
7737;SDS011;29398;45.328;5.558;2023-07-20T03:07:21;2.42;;;1.70;;
7737;SDS011;29398;45.328;5.558;2023-07-20T03:08:22;2.78;;;2.08;;
7737;SDS011;29398;45.328;5.558;2023-07-20T03:09:24;3.22;;;2.17;;
7737;SDS011;29398;45.328;5.558;2023-07-20T03:10:25;3.75;;;2.10;;
7737;SDS011;29398;45.328;5.558;2023-07-20T03:11:27;2.92;;;1.95;;
7737;SDS011;29398;45.328;5.558;2023-07-20T03:12:28;2.78;;;2.10;;
7737;SDS011;29398;45.328;5.558;2023-07-20T03:13:30;2.15;;;1.95;;
7737;SDS011;29398;45.328;5.558;2023-07-20T03:14:32;4.30;;;1.90;;
7737;SDS011;29398;45.328;5.558;2023-07-20T03:15:34;4.05;;;2.28;;
7737;SDS011;29398;45.328;5.558;2023-07-20T03:16:35;4.57;;;2.40;;
7737;SDS011;29398;45.328;5.558;2023-07-20T03:17:37;4.65;;;2.45;;
7737;SDS011;29398;45.328;5.558;2023-07-20T03:18:39;3.33;;;2.13;;
7737;SDS011;29398;45.328;5.558;2023-07-20T03:19:42;3.33;;;1.90;;
7737;SDS011;29398;45.328;5.558;2023-07-20T03:20:45;3.83;;;1.95;;
7737;SDS011;29398;45.328;5.558;2023-07-20T03:21:48;4.32;;;2.00;;
7737;SDS011;29398;45.328;5.558;2023-07-20T03:22:49;4.30;;;2.40;;
7737;SDS011;29398;45.328;5.558;2023-07-20T03:23:52;2.30;;;1.88;;
7737;SDS011;29398;45.328;5.558;2023-07-20T03:24:53;6.45;;;2.00;;
7737;SDS011;29398;45.328;5.558;2023-07-20T03:25:55;3.17;;;1.80;;
7737;SDS011;29398;45.328;5.558;2023-07-20T03:26:57;1.63;;;1.52;;
7737;SDS011;29398;45.328;5.558;2023-07-20T03:28:00;2.75;;;1.90;;
7737;SDS011;29398;45.328;5.558;2023-07-20T03:29:01;3.17;;;1.80;;
7737;SDS011;29398;45.328;5.558;2023-07-20T03:30:04;3.40;;;1.95;;
7737;SDS011;29398;45.328;5.558;2023-07-20T03:31:08;1.88;;;1.77;;
7737;SDS011;29398;45.328;5.558;2023-07-20T03:32:13;2.60;;;2.03;;
7737;SDS011;29398;45.328;5.558;2023-07-20T03:33:14;3.50;;;1.90;;
7737;SDS011;29398;45.328;5.558;2023-07-20T03:34:19;2.92;;;1.98;;
7737;SDS011;29398;45.328;5.558;2023-07-20T03:35:20;4.25;;;1.80;;
7737;SDS011;29398;45.328;5.558;2023-07-20T03:36:23;3.67;;;2.10;;
7737;SDS011;29398;45.328;5.558;2023-07-20T03:37:25;2.70;;;1.65;;
7737;SDS011;29398;45.328;5.558;2023-07-20T03:38:26;4.18;;;1.80;;
7737;SDS011;29398;45.328;5.558;2023-07-20T03:39:29;1.98;;;1.58;;
7737;SDS011;29398;45.328;5.558;2023-07-20T03:40:30;3.78;;;1.90;;
7737;SDS011;29398;45.328;5.558;2023-07-20T03:41:32;1.92;;;1.63;;
7737;SDS011;29398;45.328;5.558;2023-07-20T03:42:33;2.47;;;1.80;;
7737;SDS011;29398;45.328;5.558;2023-07-20T03:43:35;4.13;;;1.70;;
7737;SDS011;29398;45.328;5.558;2023-07-20T03:44:36;2.15;;;1.70;;
7737;SDS011;29398;45.328;5.558;2023-07-20T03:45:39;2.15;;;1.65;;
7737;SDS011;29398;45.328;5.558;2023-07-20T03:46:40;2.17;;;1.70;;
7737;SDS011;29398;45.328;5.558;2023-07-20T03:47:42;2.58;;;1.48;;
7737;SDS011;29398;45.328;5.558;2023-07-20T03:48:44;3.33;;;1.85;;
7737;SDS011;29398;45.328;5.558;2023-07-20T03:49:46;2.45;;;1.70;;
7737;SDS011;29398;45.328;5.558;2023-07-20T03:50:48;3.78;;;1.50;;
7737;SDS011;29398;45.328;5.558;2023-07-20T03:51:52;1.90;;;1.70;;
7737;SDS011;29398;45.328;5.558;2023-07-20T03:52:53;2.17;;;1.80;;
7737;SDS011;29398;45.328;5.558;2023-07-20T03:53:55;2.20;;;2.00;;
7737;SDS011;29398;45.328;5.558;2023-07-20T03:54:56;2.65;;;2.03;;
7737;SDS011;29398;45.328;5.558;2023-07-20T03:55:58;1.92;;;1.70;;
7737;SDS011;29398;45.328;5.558;2023-07-20T03:56:59;2.20;;;1.60;;
7737;SDS011;29398;45.328;5.558;2023-07-20T03:58:02;2.20;;;1.70;;
7737;SDS011;29398;45.328;5.558;2023-07-20T03:59:03;3.85;;;1.63;;
7737;SDS011;29398;45.328;5.558;2023-07-20T04:00:07;2.88;;;1.73;;
7737;SDS011;29398;45.328;5.558;2023-07-20T04:01:13;2.65;;;1.88;;
7737;SDS011;29398;45.328;5.558;2023-07-20T04:02:16;4.43;;;1.67;;
7737;SDS011;29398;45.328;5.558;2023-07-20T04:03:18;2.90;;;1.65;;
7737;SDS011;29398;45.328;5.558;2023-07-20T04:04:21;1.80;;;1.52;;
7737;SDS011;29398;45.328;5.558;2023-07-20T04:05:22;4.25;;;1.92;;
7737;SDS011;29398;45.328;5.558;2023-07-20T04:06:24;2.65;;;1.80;;
7737;SDS011;29398;45.328;5.558;2023-07-20T04:07:26;4.07;;;1.60;;
7737;SDS011;29398;45.328;5.558;2023-07-20T04:08:28;4.43;;;1.80;;
7737;SDS011;29398;45.328;5.558;2023-07-20T04:09:31;2.58;;;1.63;;
7737;SDS011;29398;45.328;5.558;2023-07-20T04:10:33;3.13;;;1.63;;
7737;SDS011;29398;45.328;5.558;2023-07-20T04:11:34;4.75;;;1.60;;
7737;SDS011;29398;45.328;5.558;2023-07-20T04:12:36;3.50;;;1.65;;
7737;SDS011;29398;45.328;5.558;2023-07-20T04:13:37;3.45;;;1.92;;
7737;SDS011;29398;45.328;5.558;2023-07-20T04:14:39;3.20;;;1.75;;
7737;SDS011;29398;45.328;5.558;2023-07-20T04:15:40;4.35;;;2.10;;
7737;SDS011;29398;45.328;5.558;2023-07-20T04:16:43;3.53;;;2.03;;
7737;SDS011;29398;45.328;5.558;2023-07-20T04:17:46;2.05;;;1.67;;
7737;SDS011;29398;45.328;5.558;2023-07-20T04:18:48;3.35;;;1.85;;
7737;SDS011;29398;45.328;5.558;2023-07-20T04:19:49;3.53;;;1.80;;
7737;SDS011;29398;45.328;5.558;2023-07-20T04:20:51;2.20;;;1.75;;
7737;SDS011;29398;45.328;5.558;2023-07-20T04:21:53;1.77;;;1.65;;
7737;SDS011;29398;45.328;5.558;2023-07-20T04:22:56;1.80;;;1.52;;
7737;SDS011;29398;45.328;5.558;2023-07-20T04:23:58;2.42;;;1.60;;
7737;SDS011;29398;45.328;5.558;2023-07-20T04:25:00;2.25;;;1.50;;
7737;SDS011;29398;45.328;5.558;2023-07-20T04:26:01;2.50;;;1.80;;
7737;SDS011;29398;45.328;5.558;2023-07-20T04:27:03;2.33;;;2.00;;
7737;SDS011;29398;45.328;5.558;2023-07-20T04:28:05;3.10;;;1.45;;
7737;SDS011;29398;45.328;5.558;2023-07-20T04:29:11;4.57;;;1.65;;
7737;SDS011;29398;45.328;5.558;2023-07-20T04:30:17;2.60;;;1.90;;
7737;SDS011;29398;45.328;5.558;2023-07-20T04:31:20;4.00;;;1.98;;
7737;SDS011;29398;45.328;5.558;2023-07-20T04:32:21;1.65;;;1.55;;
7737;SDS011;29398;45.328;5.558;2023-07-20T04:33:23;3.95;;;1.73;;
7737;SDS011;29398;45.328;5.558;2023-07-20T04:34:24;2.13;;;1.45;;
7737;SDS011;29398;45.328;5.558;2023-07-20T04:35:45;5.90;;;1.95;;
7737;SDS011;29398;45.328;5.558;2023-07-20T04:36:51;3.15;;;1.70;;
7737;SDS011;29398;45.328;5.558;2023-07-20T04:37:57;1.73;;;1.25;;
7737;SDS011;29398;45.328;5.558;2023-07-20T04:38:59;4.28;;;1.67;;
7737;SDS011;29398;45.328;5.558;2023-07-20T04:40:08;4.60;;;2.00;;
7737;SDS011;29398;45.328;5.558;2023-07-20T04:41:09;2.83;;;1.50;;
7737;SDS011;29398;45.328;5.558;2023-07-20T04:42:15;3.58;;;1.33;;
7737;SDS011;29398;45.328;5.558;2023-07-20T04:43:17;2.45;;;1.40;;
7737;SDS011;29398;45.328;5.558;2023-07-20T04:44:19;4.90;;;2.17;;
7737;SDS011;29398;45.328;5.558;2023-07-20T04:45:20;1.45;;;1.35;;
7737;SDS011;29398;45.328;5.558;2023-07-20T04:46:25;3.38;;;1.48;;
7737;SDS011;29398;45.328;5.558;2023-07-20T04:47:26;2.78;;;1.20;;
7737;SDS011;29398;45.328;5.558;2023-07-20T04:48:28;3.17;;;1.67;;
7737;SDS011;29398;45.328;5.558;2023-07-20T04:49:30;4.13;;;1.80;;
7737;SDS011;29398;45.328;5.558;2023-07-20T04:50:32;3.90;;;1.63;;
7737;SDS011;29398;45.328;5.558;2023-07-20T04:51:33;3.03;;;1.60;;
7737;SDS011;29398;45.328;5.558;2023-07-20T04:52:36;3.88;;;1.50;;
7737;SDS011;29398;45.328;5.558;2023-07-20T04:53:38;2.58;;;1.40;;
7737;SDS011;29398;45.328;5.558;2023-07-20T04:54:42;1.60;;;1.40;;
7737;SDS011;29398;45.328;5.558;2023-07-20T04:55:48;3.97;;;1.75;;
7737;SDS011;29398;45.328;5.558;2023-07-20T04:56:55;1.90;;;1.45;;
7737;SDS011;29398;45.328;5.558;2023-07-20T04:57:57;2.35;;;1.70;;
7737;SDS011;29398;45.328;5.558;2023-07-20T04:58:59;2.33;;;1.45;;
7737;SDS011;29398;45.328;5.558;2023-07-20T05:00:02;3.95;;;1.60;;
7737;SDS011;29398;45.328;5.558;2023-07-20T05:01:05;2.65;;;1.70;;
7737;SDS011;29398;45.328;5.558;2023-07-20T05:02:09;3.40;;;1.75;;
7737;SDS011;29398;45.328;5.558;2023-07-20T05:03:10;2.35;;;1.73;;
7737;SDS011;29398;45.328;5.558;2023-07-20T05:04:11;2.88;;;1.48;;
7737;SDS011;29398;45.328;5.558;2023-07-20T05:05:14;3.38;;;1.63;;
7737;SDS011;29398;45.328;5.558;2023-07-20T05:06:15;4.75;;;1.85;;
7737;SDS011;29398;45.328;5.558;2023-07-20T05:07:18;1.58;;;1.42;;
7737;SDS011;29398;45.328;5.558;2023-07-20T05:08:20;3.28;;;1.58;;
7737;SDS011;29398;45.328;5.558;2023-07-20T05:09:24;2.38;;;1.30;;
7737;SDS011;29398;45.328;5.558;2023-07-20T05:10:25;2.75;;;1.45;;
7737;SDS011;29398;45.328;5.558;2023-07-20T05:11:27;3.00;;;1.88;;
7737;SDS011;29398;45.328;5.558;2023-07-20T05:12:28;2.40;;;1.45;;
7737;SDS011;29398;45.328;5.558;2023-07-20T05:13:30;3.90;;;1.77;;
7737;SDS011;29398;45.328;5.558;2023-07-20T05:14:31;2.35;;;1.60;;
7737;SDS011;29398;45.328;5.558;2023-07-20T05:15:33;3.53;;;1.63;;
7737;SDS011;29398;45.328;5.558;2023-07-20T05:16:35;2.70;;;1.80;;
7737;SDS011;29398;45.328;5.558;2023-07-20T05:17:39;1.67;;;1.40;;
7737;SDS011;29398;45.328;5.558;2023-07-20T05:18:40;4.50;;;1.73;;
7737;SDS011;29398;45.328;5.558;2023-07-20T05:19:43;2.25;;;1.50;;
7737;SDS011;29398;45.328;5.558;2023-07-20T05:20:45;2.10;;;1.55;;
7737;SDS011;29398;45.328;5.558;2023-07-20T05:21:47;2.63;;;1.73;;
7737;SDS011;29398;45.328;5.558;2023-07-20T05:22:48;1.83;;;1.60;;
7737;SDS011;29398;45.328;5.558;2023-07-20T05:23:50;4.95;;;1.80;;
7737;SDS011;29398;45.328;5.558;2023-07-20T05:24:53;3.75;;;1.80;;
7737;SDS011;29398;45.328;5.558;2023-07-20T05:25:54;5.05;;;1.60;;
7737;SDS011;29398;45.328;5.558;2023-07-20T05:26:57;2.25;;;1.52;;
7737;SDS011;29398;45.328;5.558;2023-07-20T05:27:59;2.22;;;1.52;;
7737;SDS011;29398;45.328;5.558;2023-07-20T05:29:00;3.53;;;1.83;;
7737;SDS011;29398;45.328;5.558;2023-07-20T05:30:02;5.05;;;1.65;;
7737;SDS011;29398;45.328;5.558;2023-07-20T05:31:03;4.47;;;1.95;;
7737;SDS011;29398;45.328;5.558;2023-07-20T05:32:06;1.75;;;1.60;;
7737;SDS011;29398;45.328;5.558;2023-07-20T05:33:07;1.92;;;1.58;;
7737;SDS011;29398;45.328;5.558;2023-07-20T05:34:08;2.63;;;1.83;;
7737;SDS011;29398;45.328;5.558;2023-07-20T05:35:10;2.75;;;1.85;;
7737;SDS011;29398;45.328;5.558;2023-07-20T05:36:12;4.03;;;1.85;;
7737;SDS011;29398;45.328;5.558;2023-07-20T05:37:14;3.03;;;1.63;;
7737;SDS011;29398;45.328;5.558;2023-07-20T05:38:15;2.03;;;1.60;;
7737;SDS011;29398;45.328;5.558;2023-07-20T05:39:17;6.10;;;1.90;;
7737;SDS011;29398;45.328;5.558;2023-07-20T05:40:19;2.03;;;1.80;;
7737;SDS011;29398;45.328;5.558;2023-07-20T05:41:21;2.75;;;1.65;;
7737;SDS011;29398;45.328;5.558;2023-07-20T05:42:22;2.10;;;1.50;;
7737;SDS011;29398;45.328;5.558;2023-07-20T05:43:24;3.28;;;1.92;;
7737;SDS011;29398;45.328;5.558;2023-07-20T05:44:25;4.18;;;1.95;;
7737;SDS011;29398;45.328;5.558;2023-07-20T05:45:27;1.98;;;1.50;;
7737;SDS011;29398;45.328;5.558;2023-07-20T05:46:28;2.67;;;1.70;;
7737;SDS011;29398;45.328;5.558;2023-07-20T05:47:30;2.47;;;1.60;;
7737;SDS011;29398;45.328;5.558;2023-07-20T05:48:32;4.68;;;1.83;;
7737;SDS011;29398;45.328;5.558;2023-07-20T05:49:34;2.13;;;1.60;;
7737;SDS011;29398;45.328;5.558;2023-07-20T05:50:35;2.83;;;1.92;;
7737;SDS011;29398;45.328;5.558;2023-07-20T05:51:37;3.13;;;1.60;;
7737;SDS011;29398;45.328;5.558;2023-07-20T05:52:39;4.75;;;1.88;;
7737;SDS011;29398;45.328;5.558;2023-07-20T05:53:41;2.22;;;1.52;;
7737;SDS011;29398;45.328;5.558;2023-07-20T05:54:42;3.47;;;1.75;;
7737;SDS011;29398;45.328;5.558;2023-07-20T05:55:45;3.15;;;1.60;;
7737;SDS011;29398;45.328;5.558;2023-07-20T05:56:53;2.60;;;1.52;;
7737;SDS011;29398;45.328;5.558;2023-07-20T05:57:54;3.95;;;1.70;;
7737;SDS011;29398;45.328;5.558;2023-07-20T05:58:56;3.08;;;1.40;;
7737;SDS011;29398;45.328;5.558;2023-07-20T05:59:57;4.28;;;1.70;;
7737;SDS011;29398;45.328;5.558;2023-07-20T06:00:59;3.67;;;1.73;;
7737;SDS011;29398;45.328;5.558;2023-07-20T06:02:00;8.43;;;1.60;;
7737;SDS011;29398;45.328;5.558;2023-07-20T06:03:01;5.65;;;1.80;;
7737;SDS011;29398;45.328;5.558;2023-07-20T06:04:03;2.65;;;1.40;;
7737;SDS011;29398;45.328;5.558;2023-07-20T06:05:05;5.95;;;1.70;;
7737;SDS011;29398;45.328;5.558;2023-07-20T06:06:09;2.83;;;1.40;;
7737;SDS011;29398;45.328;5.558;2023-07-20T06:07:12;3.08;;;1.63;;
7737;SDS011;29398;45.328;5.558;2023-07-20T06:08:13;1.98;;;1.20;;
7737;SDS011;29398;45.328;5.558;2023-07-20T06:09:15;4.80;;;2.03;;
7737;SDS011;29398;45.328;5.558;2023-07-20T06:10:16;4.50;;;1.67;;
7737;SDS011;29398;45.328;5.558;2023-07-20T06:11:19;5.80;;;1.80;;
7737;SDS011;29398;45.328;5.558;2023-07-20T06:12:20;4.18;;;1.52;;
7737;SDS011;29398;45.328;5.558;2023-07-20T06:13:22;3.25;;;1.70;;
7737;SDS011;29398;45.328;5.558;2023-07-20T06:14:24;7.70;;;2.00;;
7737;SDS011;29398;45.328;5.558;2023-07-20T06:15:26;2.15;;;1.40;;
7737;SDS011;29398;45.328;5.558;2023-07-20T06:16:29;2.58;;;1.63;;
7737;SDS011;29398;45.328;5.558;2023-07-20T06:17:31;2.90;;;1.65;;
7737;SDS011;29398;45.328;5.558;2023-07-20T06:18:32;2.25;;;1.67;;
7737;SDS011;29398;45.328;5.558;2023-07-20T06:19:34;3.38;;;1.33;;
7737;SDS011;29398;45.328;5.558;2023-07-20T06:20:35;1.92;;;1.30;;
7737;SDS011;29398;45.328;5.558;2023-07-20T06:21:37;4.88;;;1.42;;
7737;SDS011;29398;45.328;5.558;2023-07-20T06:22:38;3.83;;;1.63;;
7737;SDS011;29398;45.328;5.558;2023-07-20T06:23:40;5.00;;;1.63;;